sensor_id;sensor_type;location;lat;lon;timestamp;P1;durP1;ratioP1;P2;durP2;ratioP2
55417;SDS011;41287;47.554;7.844;2022-12-05T00:01:50;12.80;;;6.50;;
55417;SDS011;41287;47.554;7.844;2022-12-05T00:04:17;12.45;;;6.22;;
55417;SDS011;41287;47.554;7.844;2022-12-05T00:06:42;14.40;;;6.65;;
55417;SDS011;41287;47.554;7.844;2022-12-05T00:09:08;12.30;;;6.43;;
55417;SDS011;41287;47.554;7.844;2022-12-05T00:11:38;11.48;;;5.90;;
55417;SDS011;41287;47.554;7.844;2022-12-05T00:14:05;12.88;;;6.20;;
55417;SDS011;41287;47.554;7.844;2022-12-05T00:16:34;13.30;;;6.13;;
55417;SDS011;41287;47.554;7.844;2022-12-05T00:19:05;11.93;;;5.97;;
55417;SDS011;41287;47.554;7.844;2022-12-05T00:21:32;12.60;;;6.43;;
55417;SDS011;41287;47.554;7.844;2022-12-05T00:23:59;14.57;;;6.93;;
55417;SDS011;41287;47.554;7.844;2022-12-05T00:26:26;12.82;;;5.95;;
55417;SDS011;41287;47.554;7.844;2022-12-05T00:28:51;10.60;;;5.50;;
55417;SDS011;41287;47.554;7.844;2022-12-05T00:31:21;12.32;;;6.13;;
55417;SDS011;41287;47.554;7.844;2022-12-05T00:33:49;13.07;;;6.38;;
55417;SDS011;41287;47.554;7.844;2022-12-05T00:36:17;12.95;;;6.30;;
55417;SDS011;41287;47.554;7.844;2022-12-05T00:38:42;11.90;;;5.90;;
55417;SDS011;41287;47.554;7.844;2022-12-05T00:41:09;11.13;;;5.78;;
55417;SDS011;41287;47.554;7.844;2022-12-05T00:43:37;13.18;;;6.60;;
55417;SDS011;41287;47.554;7.844;2022-12-05T00:46:03;11.95;;;5.45;;
55417;SDS011;41287;47.554;7.844;2022-12-05T00:48:33;13.27;;;6.10;;
55417;SDS011;41287;47.554;7.844;2022-12-05T00:51:04;12.07;;;5.38;;
55417;SDS011;41287;47.554;7.844;2022-12-05T00:53:31;11.63;;;5.43;;
55417;SDS011;41287;47.554;7.844;2022-12-05T00:56:01;13.23;;;5.85;;
55417;SDS011;41287;47.554;7.844;2022-12-05T00:58:30;11.18;;;5.82;;
55417;SDS011;41287;47.554;7.844;2022-12-05T01:00:56;12.32;;;5.63;;
55417;SDS011;41287;47.554;7.844;2022-12-05T01:03:22;10.70;;;5.60;;
55417;SDS011;41287;47.554;7.844;2022-12-05T01:05:47;11.38;;;5.63;;
55417;SDS011;41287;47.554;7.844;2022-12-05T01:08:12;13.55;;;6.32;;
55417;SDS011;41287;47.554;7.844;2022-12-05T01:10:38;13.00;;;6.68;;
55417;SDS011;41287;47.554;7.844;2022-12-05T01:13:03;12.20;;;6.28;;
55417;SDS011;41287;47.554;7.844;2022-12-05T01:15:28;11.85;;;5.38;;
55417;SDS011;41287;47.554;7.844;2022-12-05T01:17:56;12.68;;;5.95;;
55417;SDS011;41287;47.554;7.844;2022-12-05T01:20:21;11.82;;;6.03;;
55417;SDS011;41287;47.554;7.844;2022-12-05T01:22:46;12.45;;;5.65;;
55417;SDS011;41287;47.554;7.844;2022-12-05T01:25:12;11.48;;;6.15;;
55417;SDS011;41287;47.554;7.844;2022-12-05T01:27:37;12.93;;;6.22;;
55417;SDS011;41287;47.554;7.844;2022-12-05T01:30:03;11.73;;;5.70;;
55417;SDS011;41287;47.554;7.844;2022-12-05T01:32:29;9.65;;;5.05;;
55417;SDS011;41287;47.554;7.844;2022-12-05T01:34:54;10.27;;;5.65;;
55417;SDS011;41287;47.554;7.844;2022-12-05T01:37:19;12.23;;;5.55;;
55417;SDS011;41287;47.554;7.844;2022-12-05T01:39:47;11.55;;;5.50;;
55417;SDS011;41287;47.554;7.844;2022-12-05T01:42:13;13.07;;;5.72;;
55417;SDS011;41287;47.554;7.844;2022-12-05T01:45:00;12.07;;;5.63;;
55417;SDS011;41287;47.554;7.844;2022-12-05T01:47:26;11.40;;;5.50;;
55417;SDS011;41287;47.554;7.844;2022-12-05T01:49:53;11.13;;;5.68;;
55417;SDS011;41287;47.554;7.844;2022-12-05T01:52:20;10.35;;;5.45;;
55417;SDS011;41287;47.554;7.844;2022-12-05T01:54:49;11.30;;;5.43;;
55417;SDS011;41287;47.554;7.844;2022-12-05T01:57:18;12.48;;;6.18;;
55417;SDS011;41287;47.554;7.844;2022-12-05T01:59:47;10.55;;;4.65;;
55417;SDS011;41287;47.554;7.844;2022-12-05T02:02:15;11.48;;;5.55;;
55417;SDS011;41287;47.554;7.844;2022-12-05T02:04:46;9.38;;;5.25;;
55417;SDS011;41287;47.554;7.844;2022-12-05T02:07:23;11.32;;;5.72;;
55417;SDS011;41287;47.554;7.844;2022-12-05T02:09:52;11.48;;;5.25;;
55417;SDS011;41287;47.554;7.844;2022-12-05T02:12:17;9.57;;;5.60;;
55417;SDS011;41287;47.554;7.844;2022-12-05T02:17:46;10.18;;;5.38;;
55417;SDS011;41287;47.554;7.844;2022-12-05T02:20:31;10.32;;;5.30;;
55417;SDS011;41287;47.554;7.844;2022-12-05T02:28:44;9.82;;;4.65;;
55417;SDS011;41287;47.554;7.844;2022-12-05T02:31:32;10.70;;;4.95;;
55417;SDS011;41287;47.554;7.844;2022-12-05T02:34:18;10.00;;;5.15;;
55417;SDS011;41287;47.554;7.844;2022-12-05T02:36:59;11.75;;;5.57;;
55417;SDS011;41287;47.554;7.844;2022-12-05T02:39:51;10.57;;;5.47;;
55417;SDS011;41287;47.554;7.844;2022-12-05T02:45:07;10.57;;;5.22;;
55417;SDS011;41287;47.554;7.844;2022-12-05T02:47:37;9.50;;;4.75;;
55417;SDS011;41287;47.554;7.844;2022-12-05T02:52:38;9.50;;;4.95;;
55417;SDS011;41287;47.554;7.844;2022-12-05T02:55:04;10.20;;;5.22;;
55417;SDS011;41287;47.554;7.844;2022-12-05T02:57:32;9.30;;;5.30;;
55417;SDS011;41287;47.554;7.844;2022-12-05T02:59:59;10.88;;;5.10;;
55417;SDS011;41287;47.554;7.844;2022-12-05T03:02:29;9.65;;;5.38;;
55417;SDS011;41287;47.554;7.844;2022-12-05T03:05:03;10.43;;;5.10;;
55417;SDS011;41287;47.554;7.844;2022-12-05T03:07:46;9.52;;;4.85;;
55417;SDS011;41287;47.554;7.844;2022-12-05T03:10:14;8.70;;;4.70;;
55417;SDS011;41287;47.554;7.844;2022-12-05T03:12:43;12.13;;;5.32;;
55417;SDS011;41287;47.554;7.844;2022-12-05T03:15:16;13.93;;;6.35;;
55417;SDS011;41287;47.554;7.844;2022-12-05T03:17:47;7.97;;;4.22;;
55417;SDS011;41287;47.554;7.844;2022-12-05T03:20:32;10.52;;;5.57;;
55417;SDS011;41287;47.554;7.844;2022-12-05T03:23:05;9.02;;;4.22;;
55417;SDS011;41287;47.554;7.844;2022-12-05T03:28:48;8.18;;;4.43;;
55417;SDS011;41287;47.554;7.844;2022-12-05T03:31:38;9.18;;;4.50;;
55417;SDS011;41287;47.554;7.844;2022-12-05T03:34:11;7.97;;;4.82;;
55417;SDS011;41287;47.554;7.844;2022-12-05T03:36:45;8.18;;;4.40;;
55417;SDS011;41287;47.554;7.844;2022-12-05T03:39:23;9.20;;;4.43;;
55417;SDS011;41287;47.554;7.844;2022-12-05T03:42:27;9.10;;;4.53;;
55417;SDS011;41287;47.554;7.844;2022-12-05T03:45:11;9.45;;;4.80;;
55417;SDS011;41287;47.554;7.844;2022-12-05T03:47:46;11.05;;;5.10;;
55417;SDS011;41287;47.554;7.844;2022-12-05T03:50:23;9.60;;;4.78;;
55417;SDS011;41287;47.554;7.844;2022-12-05T03:52:54;10.57;;;5.07;;
55417;SDS011;41287;47.554;7.844;2022-12-05T04:00:22;8.63;;;4.53;;
55417;SDS011;41287;47.554;7.844;2022-12-05T04:02:51;9.23;;;4.30;;
55417;SDS011;41287;47.554;7.844;2022-12-05T04:05:29;8.20;;;3.95;;
55417;SDS011;41287;47.554;7.844;2022-12-05T04:08:06;8.35;;;4.10;;
55417;SDS011;41287;47.554;7.844;2022-12-05T04:10:43;9.50;;;4.78;;
55417;SDS011;41287;47.554;7.844;2022-12-05T04:13:28;11.60;;;5.50;;
55417;SDS011;41287;47.554;7.844;2022-12-05T04:16:01;8.50;;;4.38;;
55417;SDS011;41287;47.554;7.844;2022-12-05T04:18:53;7.93;;;4.25;;
55417;SDS011;41287;47.554;7.844;2022-12-05T04:21:35;8.70;;;4.40;;
55417;SDS011;41287;47.554;7.844;2022-12-05T04:24:24;9.02;;;4.45;;
55417;SDS011;41287;47.554;7.844;2022-12-05T04:29:45;9.35;;;5.13;;
55417;SDS011;41287;47.554;7.844;2022-12-05T04:32:20;8.02;;;4.30;;
55417;SDS011;41287;47.554;7.844;2022-12-05T04:34:53;8.90;;;4.80;;
55417;SDS011;41287;47.554;7.844;2022-12-05T04:37:22;8.98;;;4.30;;
55417;SDS011;41287;47.554;7.844;2022-12-05T04:39:53;9.25;;;4.95;;
55417;SDS011;41287;47.554;7.844;2022-12-05T04:42:25;7.18;;;3.80;;
55417;SDS011;41287;47.554;7.844;2022-12-05T04:44:56;9.27;;;4.38;;
55417;SDS011;41287;47.554;7.844;2022-12-05T04:47:28;7.82;;;4.28;;
55417;SDS011;41287;47.554;7.844;2022-12-05T04:49:57;6.70;;;4.05;;
55417;SDS011;41287;47.554;7.844;2022-12-05T04:52:24;6.68;;;3.80;;
55417;SDS011;41287;47.554;7.844;2022-12-05T04:55:08;8.25;;;4.25;;
55417;SDS011;41287;47.554;7.844;2022-12-05T05:01:18;10.68;;;5.07;;
55417;SDS011;41287;47.554;7.844;2022-12-05T05:03:33;8.13;;;4.13;;
55417;SDS011;41287;47.554;7.844;2022-12-05T05:06:03;8.45;;;4.70;;
55417;SDS011;41287;47.554;7.844;2022-12-05T05:08:29;8.90;;;4.28;;
55417;SDS011;41287;47.554;7.844;2022-12-05T05:13:23;7.20;;;4.07;;
55417;SDS011;41287;47.554;7.844;2022-12-05T05:15:48;8.45;;;4.47;;
55417;SDS011;41287;47.554;7.844;2022-12-05T05:18:14;7.78;;;4.00;;
55417;SDS011;41287;47.554;7.844;2022-12-05T05:20:39;8.07;;;4.47;;
55417;SDS011;41287;47.554;7.844;2022-12-05T05:23:04;8.93;;;4.40;;
55417;SDS011;41287;47.554;7.844;2022-12-05T05:25:30;8.05;;;4.35;;
55417;SDS011;41287;47.554;7.844;2022-12-05T05:27:55;8.48;;;3.83;;
55417;SDS011;41287;47.554;7.844;2022-12-05T05:30:21;10.43;;;4.40;;
55417;SDS011;41287;47.554;7.844;2022-12-05T05:32:48;11.88;;;4.25;;
55417;SDS011;41287;47.554;7.844;2022-12-05T05:35:14;6.53;;;3.45;;
55417;SDS011;41287;47.554;7.844;2022-12-05T05:37:41;6.03;;;3.13;;
55417;SDS011;41287;47.554;7.844;2022-12-05T05:40:07;6.43;;;3.42;;
55417;SDS011;41287;47.554;7.844;2022-12-05T05:42:34;6.78;;;3.55;;
55417;SDS011;41287;47.554;7.844;2022-12-05T05:45:00;5.82;;;3.05;;
55417;SDS011;41287;47.554;7.844;2022-12-05T05:47:25;7.88;;;3.67;;
55417;SDS011;41287;47.554;7.844;2022-12-05T05:49:54;4.80;;;2.72;;
55417;SDS011;41287;47.554;7.844;2022-12-05T05:52:19;4.55;;;2.78;;
55417;SDS011;41287;47.554;7.844;2022-12-05T05:54:45;5.32;;;2.90;;
55417;SDS011;41287;47.554;7.844;2022-12-05T05:57:10;5.05;;;3.20;;
55417;SDS011;41287;47.554;7.844;2022-12-05T05:59:35;5.72;;;3.05;;
55417;SDS011;41287;47.554;7.844;2022-12-05T06:02:01;6.00;;;3.45;;
55417;SDS011;41287;47.554;7.844;2022-12-05T06:04:26;5.13;;;2.67;;
55417;SDS011;41287;47.554;7.844;2022-12-05T06:06:51;8.27;;;2.92;;
55417;SDS011;41287;47.554;7.844;2022-12-05T06:09:17;6.80;;;3.50;;
55417;SDS011;41287;47.554;7.844;2022-12-05T06:11:42;7.85;;;3.22;;
55417;SDS011;41287;47.554;7.844;2022-12-05T06:14:08;7.10;;;3.58;;
55417;SDS011;41287;47.554;7.844;2022-12-05T06:16:33;5.30;;;3.00;;
55417;SDS011;41287;47.554;7.844;2022-12-05T06:18:59;8.10;;;3.85;;
55417;SDS011;41287;47.554;7.844;2022-12-05T06:21:24;7.10;;;3.85;;
55417;SDS011;41287;47.554;7.844;2022-12-05T06:23:50;7.65;;;4.28;;
55417;SDS011;41287;47.554;7.844;2022-12-05T06:26:16;6.70;;;3.97;;
55417;SDS011;41287;47.554;7.844;2022-12-05T06:28:43;8.32;;;3.90;;
55417;SDS011;41287;47.554;7.844;2022-12-05T06:31:16;8.82;;;3.92;;
55417;SDS011;41287;47.554;7.844;2022-12-05T06:33:43;7.50;;;4.03;;
55417;SDS011;41287;47.554;7.844;2022-12-05T06:36:10;9.55;;;3.92;;
55417;SDS011;41287;47.554;7.844;2022-12-05T06:38:37;8.73;;;4.13;;
55417;SDS011;41287;47.554;7.844;2022-12-05T06:41:03;9.82;;;4.45;;
55417;SDS011;41287;47.554;7.844;2022-12-05T06:43:31;8.50;;;5.10;;
55417;SDS011;41287;47.554;7.844;2022-12-05T06:45:57;12.35;;;4.65;;
55417;SDS011;41287;47.554;7.844;2022-12-05T06:48:23;9.30;;;3.95;;
55417;SDS011;41287;47.554;7.844;2022-12-05T06:50:50;11.55;;;4.57;;
55417;SDS011;41287;47.554;7.844;2022-12-05T06:53:17;8.25;;;4.55;;
55417;SDS011;41287;47.554;7.844;2022-12-05T06:55:43;11.38;;;4.70;;
55417;SDS011;41287;47.554;7.844;2022-12-05T06:58:09;13.05;;;5.05;;
55417;SDS011;41287;47.554;7.844;2022-12-05T07:00:34;7.35;;;4.20;;
55417;SDS011;41287;47.554;7.844;2022-12-05T07:03:18;10.30;;;4.43;;
55417;SDS011;41287;47.554;7.844;2022-12-05T07:05:43;9.25;;;4.78;;
55417;SDS011;41287;47.554;7.844;2022-12-05T07:08:09;11.18;;;4.82;;
55417;SDS011;41287;47.554;7.844;2022-12-05T07:10:34;11.50;;;5.05;;
55417;SDS011;41287;47.554;7.844;2022-12-05T07:13:00;11.05;;;4.68;;
55417;SDS011;41287;47.554;7.844;2022-12-05T07:15:25;11.50;;;5.15;;
55417;SDS011;41287;47.554;7.844;2022-12-05T07:17:50;7.95;;;3.80;;
55417;SDS011;41287;47.554;7.844;2022-12-05T07:20:16;8.00;;;4.22;;
55417;SDS011;41287;47.554;7.844;2022-12-05T07:22:42;9.65;;;3.80;;
55417;SDS011;41287;47.554;7.844;2022-12-05T07:25:08;8.82;;;4.45;;
55417;SDS011;41287;47.554;7.844;2022-12-05T07:27:36;8.80;;;4.50;;
55417;SDS011;41287;47.554;7.844;2022-12-05T07:30:01;8.88;;;3.92;;
55417;SDS011;41287;47.554;7.844;2022-12-05T07:32:30;10.20;;;3.55;;
55417;SDS011;41287;47.554;7.844;2022-12-05T07:34:57;10.60;;;3.90;;
55417;SDS011;41287;47.554;7.844;2022-12-05T07:37:22;7.70;;;3.95;;
55417;SDS011;41287;47.554;7.844;2022-12-05T07:39:51;7.53;;;3.92;;
55417;SDS011;41287;47.554;7.844;2022-12-05T07:42:17;10.18;;;3.97;;
55417;SDS011;41287;47.554;7.844;2022-12-05T07:44:42;12.48;;;4.00;;
55417;SDS011;41287;47.554;7.844;2022-12-05T07:47:09;9.05;;;3.90;;
55417;SDS011;41287;47.554;7.844;2022-12-05T07:49:34;11.70;;;4.18;;
55417;SDS011;41287;47.554;7.844;2022-12-05T07:52:06;11.38;;;4.35;;
55417;SDS011;41287;47.554;7.844;2022-12-05T07:54:31;8.88;;;3.95;;
55417;SDS011;41287;47.554;7.844;2022-12-05T07:56:57;9.50;;;3.90;;
55417;SDS011;41287;47.554;7.844;2022-12-05T07:59:24;11.48;;;4.20;;
55417;SDS011;41287;47.554;7.844;2022-12-05T08:01:50;9.65;;;3.90;;
55417;SDS011;41287;47.554;7.844;2022-12-05T08:04:15;9.93;;;3.58;;
55417;SDS011;41287;47.554;7.844;2022-12-05T08:06:41;9.00;;;3.92;;
55417;SDS011;41287;47.554;7.844;2022-12-05T08:09:06;10.50;;;4.53;;
55417;SDS011;41287;47.554;7.844;2022-12-05T08:11:32;6.20;;;3.40;;
55417;SDS011;41287;47.554;7.844;2022-12-05T08:14:02;9.55;;;4.07;;
55417;SDS011;41287;47.554;7.844;2022-12-05T08:16:29;10.23;;;4.38;;
55417;SDS011;41287;47.554;7.844;2022-12-05T08:19:02;8.25;;;3.53;;
55417;SDS011;41287;47.554;7.844;2022-12-05T08:21:29;8.27;;;4.10;;
55417;SDS011;41287;47.554;7.844;2022-12-05T08:23:55;10.00;;;3.90;;
55417;SDS011;41287;47.554;7.844;2022-12-05T08:26:22;10.27;;;3.97;;
55417;SDS011;41287;47.554;7.844;2022-12-05T08:28:50;9.15;;;4.10;;
55417;SDS011;41287;47.554;7.844;2022-12-05T08:31:20;10.93;;;3.50;;
55417;SDS011;41287;47.554;7.844;2022-12-05T08:33:48;8.45;;;3.55;;
55417;SDS011;41287;47.554;7.844;2022-12-05T08:36:15;8.10;;;3.75;;
55417;SDS011;41287;47.554;7.844;2022-12-05T08:38:41;9.07;;;3.80;;
55417;SDS011;41287;47.554;7.844;2022-12-05T08:41:09;8.18;;;4.10;;
55417;SDS011;41287;47.554;7.844;2022-12-05T08:43:37;9.25;;;4.43;;
55417;SDS011;41287;47.554;7.844;2022-12-05T08:46:02;11.18;;;4.15;;
55417;SDS011;41287;47.554;7.844;2022-12-05T08:48:30;8.77;;;3.83;;
55417;SDS011;41287;47.554;7.844;2022-12-05T08:50:56;8.10;;;4.00;;
55417;SDS011;41287;47.554;7.844;2022-12-05T08:53:22;7.82;;;3.50;;
55417;SDS011;41287;47.554;7.844;2022-12-05T08:55:48;7.93;;;3.95;;
55417;SDS011;41287;47.554;7.844;2022-12-05T08:58:13;6.70;;;3.45;;
55417;SDS011;41287;47.554;7.844;2022-12-05T09:00:39;11.10;;;4.15;;
55417;SDS011;41287;47.554;7.844;2022-12-05T09:03:05;7.35;;;4.00;;
55417;SDS011;41287;47.554;7.844;2022-12-05T09:05:31;7.72;;;3.42;;
55417;SDS011;41287;47.554;7.844;2022-12-05T09:07:57;8.65;;;3.53;;
55417;SDS011;41287;47.554;7.844;2022-12-05T09:10:24;7.57;;;3.80;;
55417;SDS011;41287;47.554;7.844;2022-12-05T09:12:51;9.18;;;3.80;;
55417;SDS011;41287;47.554;7.844;2022-12-05T09:15:17;9.68;;;4.10;;
55417;SDS011;41287;47.554;7.844;2022-12-05T09:17:42;10.43;;;4.05;;
55417;SDS011;41287;47.554;7.844;2022-12-05T09:20:08;9.27;;;3.70;;
55417;SDS011;41287;47.554;7.844;2022-12-05T09:22:35;10.40;;;4.28;;
55417;SDS011;41287;47.554;7.844;2022-12-05T09:25:01;9.23;;;4.28;;
55417;SDS011;41287;47.554;7.844;2022-12-05T09:27:27;8.07;;;3.42;;
55417;SDS011;41287;47.554;7.844;2022-12-05T09:29:53;8.48;;;3.50;;
55417;SDS011;41287;47.554;7.844;2022-12-05T09:32:18;9.13;;;3.35;;
55417;SDS011;41287;47.554;7.844;2022-12-05T09:34:43;7.65;;;3.90;;
55417;SDS011;41287;47.554;7.844;2022-12-05T09:37:09;7.90;;;4.03;;
55417;SDS011;41287;47.554;7.844;2022-12-05T09:39:42;9.13;;;4.53;;
55417;SDS011;41287;47.554;7.844;2022-12-05T09:42:15;9.32;;;4.45;;
55417;SDS011;41287;47.554;7.844;2022-12-05T09:44:48;9.32;;;3.95;;
55417;SDS011;41287;47.554;7.844;2022-12-05T09:55:19;12.43;;;4.57;;
55417;SDS011;41287;47.554;7.844;2022-12-05T09:57:51;11.82;;;4.35;;
55417;SDS011;41287;47.554;7.844;2022-12-05T10:00:20;9.52;;;4.40;;
55417;SDS011;41287;47.554;7.844;2022-12-05T10:08:15;6.45;;;4.07;;
55417;SDS011;41287;47.554;7.844;2022-12-05T10:16:16;8.30;;;4.40;;
55417;SDS011;41287;47.554;7.844;2022-12-05T10:18:49;9.52;;;4.40;;
55417;SDS011;41287;47.554;7.844;2022-12-05T10:21:32;7.05;;;4.03;;
55417;SDS011;41287;47.554;7.844;2022-12-05T10:24:04;8.25;;;4.53;;
55417;SDS011;41287;47.554;7.844;2022-12-05T10:26:42;9.95;;;4.45;;
55417;SDS011;41287;47.554;7.844;2022-12-05T10:32:06;10.20;;;4.45;;
55417;SDS011;41287;47.554;7.844;2022-12-05T10:34:50;11.63;;;4.80;;
55417;SDS011;41287;47.554;7.844;2022-12-05T10:37:23;7.85;;;4.05;;
55417;SDS011;41287;47.554;7.844;2022-12-05T10:39:49;10.07;;;4.30;;
55417;SDS011;41287;47.554;7.844;2022-12-05T10:42:18;9.85;;;4.50;;
55417;SDS011;41287;47.554;7.844;2022-12-05T10:44:50;11.82;;;4.88;;
55417;SDS011;41287;47.554;7.844;2022-12-05T10:47:21;9.98;;;4.10;;
55417;SDS011;41287;47.554;7.844;2022-12-05T10:49:46;14.68;;;5.28;;
55417;SDS011;41287;47.554;7.844;2022-12-05T10:52:12;8.95;;;4.30;;
55417;SDS011;41287;47.554;7.844;2022-12-05T10:54:45;8.32;;;3.90;;
55417;SDS011;41287;47.554;7.844;2022-12-05T10:57:20;10.50;;;4.28;;
55417;SDS011;41287;47.554;7.844;2022-12-05T10:59:49;11.05;;;4.10;;
55417;SDS011;41287;47.554;7.844;2022-12-05T11:02:20;9.43;;;4.43;;
55417;SDS011;41287;47.554;7.844;2022-12-05T11:04:50;8.18;;;4.15;;
55417;SDS011;41287;47.554;7.844;2022-12-05T11:07:35;12.13;;;4.63;;
55417;SDS011;41287;47.554;7.844;2022-12-05T11:10:19;7.03;;;3.90;;
55417;SDS011;41287;47.554;7.844;2022-12-05T11:12:49;11.40;;;4.55;;
55417;SDS011;41287;47.554;7.844;2022-12-05T11:17:43;10.45;;;4.57;;
55417;SDS011;41287;47.554;7.844;2022-12-05T11:22:48;9.68;;;4.22;;
55417;SDS011;41287;47.554;7.844;2022-12-05T11:30:41;15.15;;;4.72;;
55417;SDS011;41287;47.554;7.844;2022-12-05T11:33:22;9.98;;;4.45;;
55417;SDS011;41287;47.554;7.844;2022-12-05T11:35:50;9.88;;;4.45;;
55417;SDS011;41287;47.554;7.844;2022-12-05T11:38:18;13.18;;;5.10;;
55417;SDS011;41287;47.554;7.844;2022-12-05T11:41:36;15.13;;;4.97;;
55417;SDS011;41287;47.554;7.844;2022-12-05T11:49:02;11.95;;;4.60;;
55417;SDS011;41287;47.554;7.844;2022-12-05T11:56:56;10.30;;;4.85;;
55417;SDS011;41287;47.554;7.844;2022-12-05T11:59:30;11.88;;;4.80;;
55417;SDS011;41287;47.554;7.844;2022-12-05T12:02:27;16.20;;;5.65;;
55417;SDS011;41287;47.554;7.844;2022-12-05T12:08:10;9.32;;;4.72;;
55417;SDS011;41287;47.554;7.844;2022-12-05T12:10:42;11.63;;;4.80;;
55417;SDS011;41287;47.554;7.844;2022-12-05T12:13:26;11.65;;;5.10;;
55417;SDS011;41287;47.554;7.844;2022-12-05T12:21:28;13.07;;;6.25;;
55417;SDS011;41287;47.554;7.844;2022-12-05T12:37:42;15.40;;;5.80;;
55417;SDS011;41287;47.554;7.844;2022-12-05T12:40:38;13.45;;;5.63;;
55417;SDS011;41287;47.554;7.844;2022-12-05T12:46:03;14.10;;;6.88;;
55417;SDS011;41287;47.554;7.844;2022-12-05T12:51:23;14.65;;;7.05;;
55417;SDS011;41287;47.554;7.844;2022-12-05T12:53:55;13.73;;;7.03;;
55417;SDS011;41287;47.554;7.844;2022-12-05T12:59:28;12.50;;;6.20;;
55417;SDS011;41287;47.554;7.844;2022-12-05T13:02:19;15.20;;;7.13;;
55417;SDS011;41287;47.554;7.844;2022-12-05T13:07:35;10.95;;;6.25;;
55417;SDS011;41287;47.554;7.844;2022-12-05T13:10:11;14.03;;;5.93;;
55417;SDS011;41287;47.554;7.844;2022-12-05T13:12:44;11.95;;;5.75;;
55417;SDS011;41287;47.554;7.844;2022-12-05T13:15:15;14.20;;;5.72;;
55417;SDS011;41287;47.554;7.844;2022-12-05T13:17:44;11.53;;;5.80;;
55417;SDS011;41287;47.554;7.844;2022-12-05T13:20:16;12.40;;;5.70;;
55417;SDS011;41287;47.554;7.844;2022-12-05T13:22:45;13.00;;;5.78;;
55417;SDS011;41287;47.554;7.844;2022-12-05T13:25:13;13.25;;;5.47;;
55417;SDS011;41287;47.554;7.844;2022-12-05T13:27:39;13.90;;;5.40;;
55417;SDS011;41287;47.554;7.844;2022-12-05T13:30:18;10.15;;;5.22;;
55417;SDS011;41287;47.554;7.844;2022-12-05T13:32:44;11.30;;;5.40;;
55417;SDS011;41287;47.554;7.844;2022-12-05T13:35:10;11.38;;;4.82;;
55417;SDS011;41287;47.554;7.844;2022-12-05T13:38:02;10.00;;;5.30;;
55417;SDS011;41287;47.554;7.844;2022-12-05T13:40:49;10.20;;;4.53;;
55417;SDS011;41287;47.554;7.844;2022-12-05T13:43:39;10.43;;;4.70;;
55417;SDS011;41287;47.554;7.844;2022-12-05T13:46:10;11.77;;;5.32;;
55417;SDS011;41287;47.554;7.844;2022-12-05T13:48:43;9.60;;;4.82;;
55417;SDS011;41287;47.554;7.844;2022-12-05T13:54:08;9.73;;;4.60;;
55417;SDS011;41287;47.554;7.844;2022-12-05T14:02:45;9.27;;;4.68;;
55417;SDS011;41287;47.554;7.844;2022-12-05T14:07:44;8.23;;;3.63;;
55417;SDS011;41287;47.554;7.844;2022-12-05T14:10:12;8.18;;;4.00;;
55417;SDS011;41287;47.554;7.844;2022-12-05T14:12:58;9.13;;;4.80;;
55417;SDS011;41287;47.554;7.844;2022-12-05T14:15:34;5.75;;;3.88;;
55417;SDS011;41287;47.554;7.844;2022-12-05T14:20:48;8.57;;;3.75;;
55417;SDS011;41287;47.554;7.844;2022-12-05T14:26:10;8.32;;;3.80;;
55417;SDS011;41287;47.554;7.844;2022-12-05T14:34:35;8.10;;;4.00;;
55417;SDS011;41287;47.554;7.844;2022-12-05T14:37:29;10.23;;;4.60;;
55417;SDS011;41287;47.554;7.844;2022-12-05T14:39:58;7.20;;;4.10;;
55417;SDS011;41287;47.554;7.844;2022-12-05T14:44:59;6.80;;;3.50;;
55417;SDS011;41287;47.554;7.844;2022-12-05T14:47:31;7.00;;;3.70;;
55417;SDS011;41287;47.554;7.844;2022-12-05T14:50:44;8.57;;;3.90;;
55417;SDS011;41287;47.554;7.844;2022-12-05T14:55:55;8.68;;;3.95;;
55417;SDS011;41287;47.554;7.844;2022-12-05T14:58:25;6.65;;;3.45;;
55417;SDS011;41287;47.554;7.844;2022-12-05T15:01:05;9.82;;;3.97;;
55417;SDS011;41287;47.554;7.844;2022-12-05T15:03:36;7.95;;;3.50;;
55417;SDS011;41287;47.554;7.844;2022-12-05T15:06:05;9.75;;;3.90;;
55417;SDS011;41287;47.554;7.844;2022-12-05T15:08:42;8.38;;;4.07;;
55417;SDS011;41287;47.554;7.844;2022-12-05T15:11:20;9.18;;;3.42;;
55417;SDS011;41287;47.554;7.844;2022-12-05T15:14:03;10.57;;;4.10;;
55417;SDS011;41287;47.554;7.844;2022-12-05T15:16:37;8.50;;;3.72;;
55417;SDS011;41287;47.554;7.844;2022-12-05T15:19:09;9.63;;;3.78;;
55417;SDS011;41287;47.554;7.844;2022-12-05T15:21:41;7.43;;;3.33;;
55417;SDS011;41287;47.554;7.844;2022-12-05T15:24:16;9.68;;;3.78;;
55417;SDS011;41287;47.554;7.844;2022-12-05T15:26:44;8.02;;;3.72;;
55417;SDS011;41287;47.554;7.844;2022-12-05T15:31:59;7.43;;;3.55;;
55417;SDS011;41287;47.554;7.844;2022-12-05T15:40:01;21.98;;;3.95;;
55417;SDS011;41287;47.554;7.844;2022-12-05T15:42:41;7.43;;;3.35;;
55417;SDS011;41287;47.554;7.844;2022-12-05T15:45:29;7.63;;;3.45;;
55417;SDS011;41287;47.554;7.844;2022-12-05T15:50:32;10.00;;;3.72;;
55417;SDS011;41287;47.554;7.844;2022-12-05T15:53:01;6.15;;;2.92;;
55417;SDS011;41287;47.554;7.844;2022-12-05T15:55:41;5.88;;;2.80;;
55417;SDS011;41287;47.554;7.844;2022-12-05T16:00:36;7.77;;;3.63;;
55417;SDS011;41287;47.554;7.844;2022-12-05T16:03:09;7.43;;;3.17;;
55417;SDS011;41287;47.554;7.844;2022-12-05T16:05:48;7.95;;;3.33;;
55417;SDS011;41287;47.554;7.844;2022-12-05T16:08:19;7.85;;;3.53;;
55417;SDS011;41287;47.554;7.844;2022-12-05T16:10:48;7.15;;;3.30;;
55417;SDS011;41287;47.554;7.844;2022-12-05T16:13:15;7.10;;;3.30;;
55417;SDS011;41287;47.554;7.844;2022-12-05T16:15:46;6.80;;;3.10;;
55417;SDS011;41287;47.554;7.844;2022-12-05T16:18:25;10.82;;;3.40;;
55417;SDS011;41287;47.554;7.844;2022-12-05T16:20:52;6.15;;;3.13;;
55417;SDS011;41287;47.554;7.844;2022-12-05T16:25:47;6.13;;;2.92;;
55417;SDS011;41287;47.554;7.844;2022-12-05T16:28:14;6.35;;;3.13;;
55417;SDS011;41287;47.554;7.844;2022-12-05T16:33:41;7.68;;;3.28;;
55417;SDS011;41287;47.554;7.844;2022-12-05T16:36:15;8.02;;;3.53;;
55417;SDS011;41287;47.554;7.844;2022-12-05T16:38:40;6.38;;;2.95;;
55417;SDS011;41287;47.554;7.844;2022-12-05T16:41:07;9.40;;;3.80;;
55417;SDS011;41287;47.554;7.844;2022-12-05T16:48:45;6.88;;;3.25;;
55417;SDS011;41287;47.554;7.844;2022-12-05T16:51:38;8.00;;;3.40;;
55417;SDS011;41287;47.554;7.844;2022-12-05T16:54:06;7.10;;;3.20;;
55417;SDS011;41287;47.554;7.844;2022-12-05T16:56:31;8.52;;;3.42;;
55417;SDS011;41287;47.554;7.844;2022-12-05T16:59:04;5.63;;;2.97;;
55417;SDS011;41287;47.554;7.844;2022-12-05T17:01:30;6.50;;;3.13;;
55417;SDS011;41287;47.554;7.844;2022-12-05T17:03:57;6.13;;;3.13;;
55417;SDS011;41287;47.554;7.844;2022-12-05T17:06:23;7.35;;;3.20;;
55417;SDS011;41287;47.554;7.844;2022-12-05T17:08:50;7.82;;;3.65;;
55417;SDS011;41287;47.554;7.844;2022-12-05T17:11:20;8.15;;;3.45;;
55417;SDS011;41287;47.554;7.844;2022-12-05T17:13:58;7.45;;;2.95;;
55417;SDS011;41287;47.554;7.844;2022-12-05T17:16:24;6.90;;;3.30;;
55417;SDS011;41287;47.554;7.844;2022-12-05T17:18:50;8.50;;;2.50;;
55417;SDS011;41287;47.554;7.844;2022-12-05T17:21:17;7.28;;;3.65;;
55417;SDS011;41287;47.554;7.844;2022-12-05T17:23:45;7.25;;;3.20;;
55417;SDS011;41287;47.554;7.844;2022-12-05T17:26:11;6.32;;;3.05;;
55417;SDS011;41287;47.554;7.844;2022-12-05T17:28:37;7.38;;;3.08;;
55417;SDS011;41287;47.554;7.844;2022-12-05T17:31:03;7.13;;;3.10;;
55417;SDS011;41287;47.554;7.844;2022-12-05T17:33:29;5.00;;;2.50;;
55417;SDS011;41287;47.554;7.844;2022-12-05T17:35:54;5.72;;;2.55;;
55417;SDS011;41287;47.554;7.844;2022-12-05T17:38:20;11.35;;;3.35;;
55417;SDS011;41287;47.554;7.844;2022-12-05T17:40:47;8.63;;;3.38;;
55417;SDS011;41287;47.554;7.844;2022-12-05T17:43:13;6.55;;;2.97;;